Time;durP1;ratioP1;P1;durP2;ratioP2;P2;SDS_P1;SDS_P2;PMS_P1;PMS_P2;Temp;Humidity;BMP_temperature;BMP_pressure;BME280_temperature;BME280_humidity;BME280_pressure;Samples;Min_cycle;Max_cycle;Signal;HPM_P1;HPM_P2
2022/12/29 00:02:28;;;;;;;6.03;1.90;;;;;;;10.33;57.33;98659.91;5142050;28;20430;-73
2022/12/29 00:05:18;;;;;;;3.58;1.70;;;;;;;10.16;57.23;98660.66;5137313;28;20062;-73
2022/12/29 00:08:08;;;;;;;3.60;1.63;;;;;;;10.22;57.70;98653.94;5136001;28;20420;-73
2022/12/29 00:10:58;;;;;;;5.00;1.88;;;;;;;10.67;56.36;98663.69;5139563;28;20043;-73
2022/12/29 00:17:02;;;;;;;3.10;1.73;;;;;;;10.17;56.83;98637.66;5120266;28;20521;-74
2022/12/29 00:35:56;;;;;;;2.63;1.30;;;;;;;11.05;54.16;98607.59;5108792;29;20058;-74
2022/12/29 00:45:15;;;;;;;1.38;1.17;;;;;;;10.77;54.25;98577.75;5104317;29;20043;-74
2022/12/29 00:48:07;;;;;;;4.13;1.60;;;;;;;11.19;54.63;98614.16;5102481;29;20051;-74
2022/12/29 00:50:56;;;;;;;3.00;1.38;;;;;;;11.28;54.65;98615.84;5108837;29;20552;-74
2022/12/29 00:53:47;;;;;;;4.07;1.40;;;;;;;11.23;53.84;98607.56;5111155;29;20677;-74
2022/12/29 00:56:37;;;;;;;6.78;1.55;;;;;;;11.54;53.64;98617.66;5103479;29;20070;-74
2022/12/29 00:59:27;;;;;;;4.10;1.50;;;;;;;11.48;53.32;98612.97;5119503;28;20162;-74
2022/12/29 01:02:19;;;;;;;3.30;1.50;;;;;;;11.59;53.58;98615.38;5097293;29;20052;-74
2022/12/29 01:05:09;;;;;;;3.58;1.27;;;;;;;11.54;53.33;98604.38;5103163;29;20062;-74
2022/12/29 01:08:00;;;;;;;1.52;1.17;;;;;;;11.67;53.38;98607.41;5113873;29;20157;-74
2022/12/29 01:11:06;;;;;;;2.08;1.25;;;;;;;11.60;53.29;98622.31;5095345;29;20110;-74
2022/12/29 01:13:56;;;;;;;3.92;1.52;;;;;;;11.65;52.69;98630.63;5101037;29;20681;-74
2022/12/29 01:16:46;;;;;;;3.58;1.48;;;;;;;11.73;52.97;98633.34;5097549;29;20048;-74
2022/12/29 01:19:36;;;;;;;4.13;1.50;;;;;;;11.82;53.36;98626.25;5097493;29;20134;-74
2022/12/29 01:22:27;;;;;;;2.05;1.40;;;;;;;11.93;52.95;98633.94;5103152;29;20601;-74
2022/12/29 01:25:18;;;;;;;4.38;1.17;;;;;;;11.89;52.42;98626.47;5110620;28;20133;-74
2022/12/29 01:28:08;;;;;;;2.78;1.30;;;;;;;12.28;51.56;98639.16;5105808;29;20087;-74
2022/12/29 01:31:01;;;;;;;4.15;1.25;;;;;;;12.58;51.23;98651.00;5110716;29;20550;-74
2022/12/29 01:33:51;;;;;;;2.80;1.42;;;;;;;12.19;52.12;98644.47;5103784;29;20466;-74
2022/12/29 01:36:41;;;;;;;2.55;1.55;;;;;;;12.39;52.11;98639.69;5102781;29;20529;-74
2022/12/29 01:39:31;;;;;;;4.78;1.33;;;;;;;12.25;51.77;98618.22;5120967;28;20142;-74
2022/12/29 01:42:24;;;;;;;1.60;1.10;;;;;;;12.33;51.95;98642.19;5109113;29;20563;-74
2022/12/29 01:45:16;;;;;;;2.45;1.25;;;;;;;12.49;51.41;98639.53;5112380;29;20058;-74
2022/12/29 01:48:10;;;;;;;5.63;1.40;;;;;;;12.21;52.20;98628.34;5084631;29;20479;-74
2022/12/29 01:51:00;;;;;;;3.97;1.38;;;;;;;12.44;51.69;98652.50;5100436;29;20063;-74
2022/12/29 01:53:52;;;;;;;1.90;1.30;;;;;;;12.50;52.07;98643.84;5083760;29;20055;-74
2022/12/29 01:56:42;;;;;;;2.90;1.33;;;;;;;12.49;51.59;98647.53;5103612;29;20062;-74
2022/12/29 01:59:36;;;;;;;1.27;1.00;;;;;;;12.38;52.47;98645.16;5127901;28;20073;-74
2022/12/29 02:02:27;;;;;;;4.97;1.90;;;;;;;12.26;52.39;98633.19;5100959;29;20058;-74
2022/12/29 02:05:53;;;;;;;2.72;1.08;;;;;;;12.18;52.63;98632.16;5104243;29;20536;-74
2022/12/29 02:08:46;;;;;;;4.95;1.30;;;;;;;11.86;53.50;98626.78;5084333;29;20063;-74
2022/12/29 02:11:38;;;;;;;2.57;1.20;;;;;;;11.69;53.99;98591.34;5099278;29;20058;-74
2022/12/29 02:14:30;;;;;;;3.05;1.30;;;;;;;11.56;54.14;98610.38;5111823;28;20148;-74
2022/12/29 02:17:47;;;;;;;4.65;1.60;;;;;;;11.52;54.20;98617.81;5104154;29;20107;-74
2022/12/29 02:20:46;;;;;;;3.72;1.55;;;;;;;10.97;54.88;98615.50;5083780;29;20063;-74
2022/12/29 02:24:19;;;;;;;3.15;1.58;;;;;;;11.16;55.03;98609.16;5100283;29;20086;-74
2022/12/29 02:27:28;;;;;;;4.70;1.60;;;;;;;11.29;55.05;98609.56;5100681;29;20051;-74
2022/12/29 02:30:18;;;;;;;3.03;1.55;;;;;;;11.11;54.86;98613.28;5098913;29;20545;-74
2022/12/29 02:33:39;;;;;;;4.35;1.63;;;;;;;11.13;55.09;98609.47;5092387;29;20063;-74
2022/12/29 02:36:41;;;;;;;4.28;1.30;;;;;;;11.12;55.81;98605.16;5098136;29;20130;-74
2022/12/29 02:39:40;;;;;;;4.00;1.55;;;;;;;10.89;54.98;98602.19;5099932;29;20473;-74
2022/12/29 02:42:43;;;;;;;3.58;1.45;;;;;;;10.77;55.58;98603.44;5102776;29;20055;-74
2022/12/29 02:45:55;;;;;;;4.03;1.20;;;;;;;10.73;56.05;98597.63;5115688;28;20530;-74
2022/12/29 02:48:54;;;;;;;5.18;1.38;;;;;;;10.79;55.67;98581.09;5104992;28;20299;-74
2022/12/29 02:51:57;;;;;;;2.13;1.48;;;;;;;10.90;55.60;98597.72;5110259;28;20070;-74
2022/12/29 02:54:53;;;;;;;5.65;1.30;;;;;;;10.81;56.17;98597.66;5110300;29;20054;-73
2022/12/29 02:57:43;;;;;;;2.80;1.35;;;;;;;10.99;55.06;98592.31;5096383;29;20155;-74
2022/12/29 03:00:43;;;;;;;3.90;1.40;;;;;;;10.84;55.92;98599.16;5090981;29;20154;-74
2022/12/29 03:04:03;;;;;;;2.42;1.27;;;;;;;11.19;54.79;98602.69;5098556;29;20055;-74
2022/12/29 03:07:14;;;;;;;2.58;1.40;;;;;;;11.24;54.95;98590.63;5110521;29;20052;-74
2022/12/29 03:10:34;;;;;;;2.40;1.20;;;;;;;11.02;55.10;98577.88;5088983;29;20144;-74
2022/12/29 03:17:09;;;;;;;3.30;1.10;;;;;;;11.05;54.61;98577.56;5114484;28;20062;-74
2022/12/29 03:20:07;;;;;;;2.85;1.35;;;;;;;11.04;55.27;98578.56;5098195;29;20055;-74
2022/12/29 03:23:03;;;;;;;3.30;1.17;;;;;;;11.16;55.36;98577.31;5099153;29;20055;-74
2022/12/29 03:26:05;;;;;;;2.47;1.38;;;;;;;10.94;55.92;98575.19;5100629;29;21053;-74
2022/12/29 03:28:57;;;;;;;4.95;1.52;;;;;;;11.06;56.33;98568.66;5109224;28;20526;-74
2022/12/29 03:31:53;;;;;;;5.10;1.20;;;;;;;11.25;55.07;98571.03;5101209;29;20054;-74
2022/12/29 03:34:44;;;;;;;6.07;1.40;;;;;;;11.44;54.66;98553.22;5096432;29;20135;-74
2022/12/29 03:37:41;;;;;;;6.97;1.40;;;;;;;11.39;55.04;98548.41;5089648;29;20078;-74
2022/12/29 03:40:33;;;;;;;1.45;1.00;;;;;;;11.45;54.46;98549.56;5108891;29;20471;-74
2022/12/29 03:43:26;;;;;;;4.63;1.10;;;;;;;11.53;54.15;98549.63;5109661;29;20458;-74
2022/12/29 03:46:17;;;;;;;8.65;1.40;;;;;;;11.48;54.27;98538.63;5082723;29;20066;-74
2022/12/29 03:49:08;;;;;;;3.17;1.05;;;;;;;11.69;53.92;98539.06;5117337;28;20503;-74
2022/12/29 03:51:58;;;;;;;2.60;1.02;;;;;;;12.07;53.31;98558.06;5112788;29;20055;-74
2022/12/29 03:54:50;;;;;;;2.00;0.90;;;;;;;12.01;52.94;98544.63;5111131;29;20232;-75
2022/12/29 03:57:41;;;;;;;6.30;1.20;;;;;;;11.44;53.84;98508.09;5105298;29;20047;-74
2022/12/29 04:00:35;;;;;;;4.10;1.10;;;;;;;11.80;54.16;98566.28;5102972;29;20107;-75
2022/12/29 04:03:25;;;;;;;2.70;1.17;;;;;;;12.12;52.94;98554.91;5096763;29;20414;-74
2022/12/29 04:06:16;;;;;;;4.35;1.10;;;;;;;11.96;53.14;98558.41;5107838;29;20718;-75
2022/12/29 04:09:14;;;;;;;4.07;0.95;;;;;;;12.01;53.43;98555.25;5108586;29;20107;-74
2022/12/29 04:12:09;;;;;;;5.45;1.42;;;;;;;11.90;53.51;98562.53;5110646;29;20074;-74
2022/12/29 04:14:59;;;;;;;5.07;1.13;;;;;;;11.72;53.70;98541.38;5121709;28;20110;-74
2022/12/29 04:17:49;;;;;;;4.22;1.17;;;;;;;11.85;53.83;98556.84;5120719;29;20058;-74
2022/12/29 04:23:49;;;;;;;4.93;1.40;;;;;;;11.86;53.87;98569.16;5113182;28;20134;-74
2022/12/29 04:26:41;;;;;;;2.53;1.20;;;;;;;11.83;53.71;98556.19;5107513;28;20478;-74
2022/12/29 04:29:49;;;;;;;4.30;1.40;;;;;;;11.58;54.68;98560.56;5099360;29;20457;-74
2022/12/29 04:32:58;;;;;;;3.95;1.23;;;;;;;11.65;54.34;98555.44;5101262;29;20102;-74
2022/12/29 04:35:48;;;;;;;6.80;1.30;;;;;;;11.45;56.33;98565.50;5095987;29;20051;-74
2022/12/29 04:38:39;;;;;;;1.25;1.00;;;;;;;11.47;55.49;98548.44;5092682;29;20071;-74
2022/12/29 04:41:29;;;;;;;7.82;1.40;;;;;;;11.12;56.79;98548.59;5106317;28;20052;-74
2022/12/29 04:44:20;;;;;;;3.75;1.20;;;;;;;10.96;57.76;98536.06;5114148;29;20470;-74
2022/12/29 04:47:22;;;;;;;3.15;1.10;;;;;;;10.77;57.11;98523.88;5100102;29;20134;-74
2022/12/29 04:50:40;;;;;;;3.47;1.10;;;;;;;11.00;56.99;98550.69;5093490;29;20095;-74
2022/12/29 04:53:41;;;;;;;7.07;1.30;;;;;;;11.12;56.08;98528.19;5097705;29;20056;-74
2022/12/29 04:56:31;;;;;;;2.70;0.90;;;;;;;11.12;56.37;98544.13;5113653;28;20055;-74
2022/12/29 04:59:22;;;;;;;2.45;0.88;;;;;;;11.46;55.40;98544.13;5105401;28;20456;-74
2022/12/29 05:02:16;;;;;;;2.50;1.00;;;;;;;11.37;55.76;98542.41;5110400;28;20055;-74
2022/12/29 05:05:09;;;;;;;3.90;1.15;;;;;;;11.33;56.39;98521.69;5100799;29;20048;-74
2022/12/29 05:08:04;;;;;;;4.05;0.90;;;;;;;11.53;55.59;98545.13;5088586;29;20063;-74
2022/12/29 05:10:55;;;;;;;7.00;1.20;;;;;;;11.66;55.64;98536.72;5100795;29;20054;-74
2022/12/29 05:13:46;;;;;;;3.55;1.08;;;;;;;11.58;56.04;98534.00;5093421;29;20462;-74
2022/12/29 05:16:39;;;;;;;1.25;0.77;;;;;;;11.61;56.06;98523.06;5103428;29;20051;-74
2022/12/29 05:19:29;;;;;;;3.38;1.10;;;;;;;11.61;55.51;98515.09;5111078;29;20146;-74
2022/12/29 05:22:20;;;;;;;1.60;0.82;;;;;;;11.85;55.24;98526.81;5112569;29;20108;-74
2022/12/29 05:25:11;;;;;;;5.25;1.10;;;;;;;12.03;55.01;98524.84;5117093;28;20047;-74
2022/12/29 05:28:14;;;;;;;1.80;1.10;;;;;;;12.51;53.99;98538.31;5115387;28;20162;-74
2022/12/29 05:31:08;;;;;;;3.40;1.17;;;;;;;12.78;53.71;98542.44;5111539;29;20057;-74
2022/12/29 05:33:59;;;;;;;3.00;1.20;;;;;;;12.95;53.21;98541.44;5085298;29;20055;-74
2022/12/29 05:36:51;;;;;;;3.28;1.23;;;;;;;13.05;53.13;98552.72;5097113;29;20171;-74
2022/12/29 05:39:41;;;;;;;3.97;1.30;;;;;;;13.06;53.29;98551.69;5098368;29;20063;-74
2022/12/29 05:42:32;;;;;;;2.63;1.27;;;;;;;12.83;53.93;98535.63;5093753;29;20074;-74
2022/12/29 05:45:41;;;;;;;3.40;1.35;;;;;;;12.74;53.96;98538.47;5110000;29;20163;-74
2022/12/29 05:48:47;;;;;;;1.77;1.30;;;;;;;13.05;53.27;98539.41;5102974;29;20655;-74
2022/12/29 05:51:44;;;;;;;3.63;1.50;;;;;;;12.60;54.43;98542.63;5098782;29;20104;-73
2022/12/29 05:54:36;;;;;;;3.42;1.40;;;;;;;13.26;53.26;98538.03;5112284;29;20142;-74
2022/12/29 05:57:31;;;;;;;3.83;1.30;;;;;;;13.10;53.15;98530.91;5088618;29;20063;-74
2022/12/29 06:00:31;;;;;;;4.72;1.67;;;;;;;13.16;52.98;98493.78;5088697;29;20420;-74
2022/12/29 06:03:22;;;;;;;2.00;1.08;;;;;;;13.24;53.43;98521.34;5105474;29;20424;-74
2022/12/29 06:06:14;;;;;;;2.03;1.20;;;;;;;13.56;52.76;98512.44;5089353;29;20194;-73
2022/12/29 06:09:05;;;;;;;2.75;1.05;;;;;;;13.27;52.91;98499.75;5089126;29;20198;-74
2022/12/29 06:11:56;;;;;;;2.30;1.42;;;;;;;13.37;52.89;98521.66;5099399;29;20076;-74
2022/12/29 06:14:46;;;;;;;2.47;1.20;;;;;;;13.55;52.11;98530.25;5109115;28;20534;-73
2022/12/29 06:17:36;;;;;;;3.70;1.42;;;;;;;13.04;53.37;98526.25;5101255;29;20051;-74
2022/12/29 06:20:26;;;;;;;1.77;1.25;;;;;;;13.29;53.15;98540.34;5112287;28;20062;-74
2022/12/29 06:23:18;;;;;;;2.90;1.00;;;;;;;13.05;53.31;98522.63;5102339;29;20145;-73
2022/12/29 06:26:09;;;;;;;3.97;1.73;;;;;;;13.39;52.98;98541.81;5103189;29;20056;-73
2022/12/29 06:29:00;;;;;;;2.70;1.30;;;;;;;13.41;52.77;98536.31;5119807;28;20044;-73
2022/12/29 06:31:50;;;;;;;4.38;1.20;;;;;;;13.40;52.75;98542.63;5104533;29;20260;-73
2022/12/29 06:34:41;;;;;;;2.72;1.42;;;;;;;13.44;52.79;98532.47;5111055;29;20054;-73
2022/12/29 06:37:31;;;;;;;6.90;2.38;;;;;;;13.37;52.12;98508.34;5120387;28;20078;-72
2022/12/29 06:40:21;;;;;;;3.85;1.40;;;;;;;13.36;52.71;98538.66;5100840;29;20059;-72
2022/12/29 06:43:37;;;;;;;5.93;1.40;;;;;;;13.17;52.44;98534.53;5105018;29;20059;-73
2022/12/29 06:46:32;;;;;;;2.88;1.00;;;;;;;13.19;52.64;98529.06;5092578;29;20080;-73
2022/12/29 06:49:23;;;;;;;6.88;1.17;;;;;;;13.06;52.78;98524.25;5087014;29;20189;-72
2022/12/29 06:52:13;;;;;;;3.45;1.83;;;;;;;13.16;52.70;98532.88;5093157;29;20062;-72
2022/12/29 06:55:03;;;;;;;8.77;1.45;;;;;;;13.38;52.49;98534.00;5098102;29;20096;-74
2022/12/29 06:57:57;;;;;;;5.18;1.20;;;;;;;12.88;53.16;98520.00;5117023;28;20059;-74
2022/12/29 07:00:48;;;;;;;;;;;;;;;13.12;53.13;98535.06;5104353;29;20082;-74
2022/12/29 07:03:41;;;;;;;2.15;1.08;;;;;;;12.81;53.25;98526.13;5099901;29;19938;-74
2022/12/29 07:06:31;;;;;;;7.60;1.58;;;;;;;12.83;53.16;98527.63;5096114;29;20119;-75
2022/12/29 07:09:21;;;;;;;5.13;1.70;;;;;;;13.09;52.71;98521.25;5125935;28;20063;-75
2022/12/29 07:12:11;;;;;;;4.18;1.40;;;;;;;13.03;52.68;98520.09;5109661;29;20060;-75
2022/12/29 07:15:02;;;;;;;2.90;1.20;;;;;;;13.13;52.36;98519.91;5124333;28;20799;-75
2022/12/29 07:17:52;;;;;;;3.85;1.10;;;;;;;13.47;51.57;98527.63;5090164;29;20062;-75
2022/12/29 07:20:42;;;;;;;7.65;1.20;;;;;;;13.38;51.43;98504.72;5093057;29;20194;-74
2022/12/29 07:23:33;;;;;;;5.90;1.30;;;;;;;13.04;52.27;98524.41;5097684;29;20058;-75
2022/12/29 07:26:23;;;;;;;4.15;1.35;;;;;;;13.68;50.96;98528.88;5105208;28;20126;-73
2022/12/29 07:29:13;;;;;;;15.20;1.67;;;;;;;13.58;50.94;98527.25;5099468;29;20058;-75
2022/12/29 07:32:03;;;;;;;3.03;1.70;;;;;;;13.65;50.58;98523.88;5097726;29;20054;-74
2022/12/29 07:34:53;;;;;;;1.88;1.17;;;;;;;13.51;51.18;98528.94;5097920;29;20056;-72
2022/12/29 07:37:43;;;;;;;4.10;1.35;;;;;;;13.43;51.35;98526.31;5092922;29;20051;-72
2022/12/29 07:40:33;;;;;;;2.05;1.30;;;;;;;13.37;51.38;98527.00;5109940;29;20078;-75
2022/12/29 07:43:24;;;;;;;2.97;1.73;;;;;;;13.35;51.60;98534.34;5103712;29;20062;-71
2022/12/29 07:46:34;;;;;;;4.72;1.50;;;;;;;13.24;51.76;98518.69;5099143;29;20530;-73
2022/12/29 07:49:44;;;;;;;4.97;1.48;;;;;;;13.55;51.09;98532.91;5096372;29;20090;-72
2022/12/29 07:52:35;;;;;;;2.80;1.10;;;;;;;13.50;50.96;98521.13;5100605;29;20051;-71
2022/12/29 07:55:25;;;;;;;3.28;1.50;;;;;;;13.57;50.76;98538.88;5104597;28;20138;-72
2022/12/29 07:58:15;;;;;;;3.30;1.20;;;;;;;13.33;51.21;98541.66;5099872;29;20167;-71
2022/12/29 08:01:05;;;;;;;2.63;1.33;;;;;;;13.28;50.92;98541.38;5099736;28;20123;-72
2022/12/29 08:03:56;;;;;;;5.30;1.30;;;;;;;13.32;50.90;98545.34;5094184;29;20054;-72
2022/12/29 08:06:47;;;;;;;5.07;1.23;;;;;;;13.06;51.78;98541.06;5096902;29;20537;-71
2022/12/29 08:09:37;;;;;;;3.83;1.38;;;;;;;13.48;50.66;98539.94;5107061;28;20096;-74
2022/12/29 08:12:27;;;;;;;6.22;1.23;;;;;;;13.35;50.96;98551.16;5108679;28;20673;-73
2022/12/29 08:15:17;;;;;;;1.98;1.40;;;;;;;13.57;50.60;98565.53;5113764;28;20062;-71
2022/12/29 08:18:07;;;;;;;3.63;1.30;;;;;;;13.49;50.40;98548.75;5121911;29;20046;-72
2022/12/29 08:21:05;;;;;;;3.15;1.27;;;;;;;13.34;51.52;98559.28;5102255;29;20082;-72
2022/12/29 08:23:55;;;;;;;3.92;1.70;;;;;;;13.25;50.99;98533.72;5107873;28;20056;-71
2022/12/29 08:26:46;;;;;;;3.95;1.30;;;;;;;13.30;50.62;98555.31;5102298;29;20054;-73
2022/12/29 08:29:36;;;;;;;3.22;1.35;;;;;;;13.38;50.89;98542.00;5099197;29;20179;-70
2022/12/29 08:32:31;;;;;;;5.53;1.23;;;;;;;13.51;50.51;98555.59;5091226;29;20063;-69
2022/12/29 08:35:21;;;;;;;;;;;;;;;13.32;51.14;98550.66;5092851;29;20134;-72
2022/12/29 08:38:11;;;;;;;4.35;1.25;;;;;;;13.20;50.61;98504.91;5095577;29;19934;-72
2022/12/29 08:41:02;;;;;;;0.93;0.73;;;;;;;13.34;50.69;98532.66;5097305;29;20096;-72
2022/12/29 08:43:52;;;;;;;4.28;1.30;;;;;;;13.22;51.33;98558.00;5103015;29;20051;-71
2022/12/29 08:46:42;;;;;;;2.58;1.40;;;;;;;13.40;51.16;98558.59;5103989;28;20114;-71
2022/12/29 08:49:33;;;;;;;4.43;1.35;;;;;;;13.49;51.04;98544.25;5090423;29;20067;-71
2022/12/29 08:52:23;;;;;;;3.28;1.42;;;;;;;13.52;50.26;98559.06;5096855;29;20106;-74
2022/12/29 08:55:13;;;;;;;4.28;1.40;;;;;;;13.62;50.88;98563.19;5090389;29;20641;-70
2022/12/29 08:58:03;;;;;;;3.00;1.10;;;;;;;13.70;49.83;98562.31;5095373;29;20098;-71
2022/12/29 09:00:56;;;;;;;3.58;1.20;;;;;;;13.78;50.20;98550.78;5099123;29;20063;-70
2022/12/29 09:03:46;;;;;;;3.88;1.70;;;;;;;13.57;50.90;98568.19;5086630;29;20063;-70
2022/12/29 09:06:57;;;;;;;2.80;1.20;;;;;;;13.63;51.20;98575.50;5094884;29;20050;-72
2022/12/29 09:09:47;;;;;;;2.28;1.08;;;;;;;13.23;52.21;98578.28;5101181;29;20058;-72
2022/12/29 09:12:37;;;;;;;8.50;1.50;;;;;;;13.52;51.42;98583.88;5098036;29;20477;-71
2022/12/29 09:15:28;;;;;;;3.90;1.10;;;;;;;13.78;50.16;98585.44;5098603;29;20058;-75
2022/12/29 09:18:18;;;;;;;3.38;1.20;;;;;;;13.74;51.17;98586.75;5103324;29;20515;-72
2022/12/29 09:21:12;;;;;;;1.55;1.10;;;;;;;13.67;50.61;98577.81;5094780;29;20134;-72
2022/12/29 09:24:02;;;;;;;3.25;1.30;;;;;;;14.25;50.57;98595.97;5098536;29;20051;-70
2022/12/29 09:26:52;;;;;;;3.17;1.40;;;;;;;14.17;50.03;98597.84;5104234;29;20134;-76
2022/12/29 09:29:43;;;;;;;3.65;1.10;;;;;;;14.16;50.52;98580.19;5100867;29;20096;-76
2022/12/29 09:32:34;;;;;;;2.97;1.33;;;;;;;13.86;50.62;98583.53;5102634;29;20056;-76
2022/12/29 09:35:32;;;;;;;2.97;1.73;;;;;;;14.20;50.70;98590.31;5104958;29;20083;-77
2022/12/29 09:38:24;;;;;;;5.10;1.10;;;;;;;13.90;51.27;98592.00;5113924;28;20055;-74
2022/12/29 09:41:29;;;;;;;1.75;1.30;;;;;;;14.08;51.09;98595.25;5096398;29;20051;-78
2022/12/29 09:44:31;;;;;;;5.07;1.38;;;;;;;13.87;50.60;98584.34;5090065;29;20127;-78
2022/12/29 09:47:23;;;;;;;3.88;1.58;;;;;;;13.84;51.01;98577.56;5116077;28;20111;-79
2022/12/29 09:50:24;;;;;;;5.85;1.40;;;;;;;14.21;50.56;98578.69;5106270;28;20070;-74
2022/12/29 09:53:21;;;;;;;3.25;1.48;;;;;;;13.99;51.54;98590.97;5106323;29;20054;-76
2022/12/29 09:56:19;;;;;;;4.70;1.83;;;;;;;14.20;50.28;98590.31;5121738;28;20058;-77
2022/12/29 09:59:21;;;;;;;4.78;1.42;;;;;;;14.56;50.02;98598.59;5102710;29;20059;-74
2022/12/29 10:02:32;;;;;;;4.25;1.42;;;;;;;14.21;51.12;98594.69;5100482;29;20110;-76
2022/12/29 10:05:47;;;;;;;2.45;1.20;;;;;;;14.25;51.34;98606.63;5096076;29;20434;-73
2022/12/29 10:08:40;;;;;;;4.75;1.13;;;;;;;14.33;51.35;98595.06;5101863;29;20529;-73
2022/12/29 10:11:51;;;;;;;3.50;1.60;;;;;;;14.64;51.16;98611.06;5110087;29;20094;-76
2022/12/29 10:14:58;;;;;;;4.07;1.80;;;;;;;14.39;50.70;98602.38;5101246;29;20418;-74
2022/12/29 10:17:59;;;;;;;2.55;1.35;;;;;;;14.12;51.74;98589.56;5098070;29;20593;-74
2022/12/29 10:20:59;;;;;;;3.15;1.10;;;;;;;13.97;52.45;98598.31;5091045;29;20445;-74
2022/12/29 10:23:53;;;;;;;2.45;1.05;;;;;;;14.04;51.91;98601.94;5100331;29;20062;-73
2022/12/29 10:26:46;;;;;;;1.88;0.93;;;;;;;14.24;52.15;98605.00;5112784;29;20055;-71
2022/12/29 10:29:42;;;;;;;4.15;1.20;;;;;;;14.54;51.79;98608.63;5089980;29;20052;-74
2022/12/29 10:32:56;;;;;;;2.45;1.30;;;;;;;14.07;52.27;98609.59;5103268;29;20047;-74
2022/12/29 10:35:47;;;;;;;2.10;1.20;;;;;;;14.69;52.50;98607.84;5097928;29;20055;-75
2022/12/29 10:38:44;;;;;;;2.53;1.40;;;;;;;14.75;51.53;98609.81;5102328;29;20189;-75
2022/12/29 10:41:39;;;;;;;3.28;1.40;;;;;;;14.15;52.55;98575.88;5103600;29;20052;-74
2022/12/29 10:44:31;;;;;;;2.65;1.30;;;;;;;14.86;51.90;98604.03;5103979;29;20556;-73
2022/12/29 10:47:26;;;;;;;7.00;1.35;;;;;;;15.05;51.73;98602.69;5098138;29;20063;-74
2022/12/29 10:50:16;;;;;;;2.95;1.30;;;;;;;15.29;50.55;98598.94;5121566;28;20062;-74
2022/12/29 10:53:06;;;;;;;2.35;1.10;;;;;;;14.98;52.19;98605.25;5099570;29;20071;-74
2022/12/29 10:56:00;;;;;;;2.67;1.10;;;;;;;13.60;55.33;98575.00;5097071;29;20123;-73
2022/12/29 10:58:54;;;;;;;1.50;0.98;;;;;;;14.16;54.59;98602.34;5105175;29;20058;-74
2022/12/29 11:02:08;;;;;;;2.38;1.40;;;;;;;14.74;52.57;98605.47;5102775;28;20058;-74
2022/12/29 11:05:07;;;;;;;3.75;1.20;;;;;;;14.29;53.93;98602.59;5107958;29;20047;-75
2022/12/29 11:08:01;;;;;;;1.60;1.10;;;;;;;14.51;52.95;98579.66;5092110;29;20078;-74
2022/12/29 11:11:01;;;;;;;2.88;1.40;;;;;;;14.07;54.46;98609.59;5094111;29;20107;-74
2022/12/29 11:13:57;;;;;;;3.65;1.25;;;;;;;14.15;54.37;98599.88;5099570;29;20503;-74
2022/12/29 11:17:02;;;;;;;2.15;1.42;;;;;;;14.72;53.20;98615.50;5094586;29;20047;-74
2022/12/29 11:19:52;;;;;;;2.95;1.50;;;;;;;14.40;53.12;98609.34;5096471;29;20530;-73
2022/12/29 11:22:44;;;;;;;3.15;1.52;;;;;;;14.13;53.96;98610.72;5107484;29;20126;-73
2022/12/29 11:25:35;;;;;;;5.85;1.58;;;;;;;14.15;52.72;98582.03;5101502;29;20071;-76
2022/12/29 11:28:30;;;;;;;6.05;1.60;;;;;;;13.86;53.56;98607.53;5100442;29;20433;-72
2022/12/29 11:31:21;;;;;;;8.45;1.73;;;;;;;14.50;53.04;98604.69;5099833;29;20047;-74
2022/12/29 11:34:35;;;;;;;5.82;1.50;;;;;;;14.88;52.47;98612.69;5098165;29;20063;-76
2022/12/29 11:37:33;;;;;;;1.55;0.90;;;;;;;14.54;51.89;98616.66;5096449;29;20078;-75
2022/12/29 11:40:25;;;;;;;3.70;1.30;;;;;;;14.69;51.35;98602.50;5094948;29;20059;-76
2022/12/29 11:43:27;;;;;;;4.50;1.30;;;;;;;14.90;50.96;98601.81;5102742;29;20059;-75
2022/12/29 11:46:22;;;;;;;4.45;1.50;;;;;;;14.56;52.04;98611.13;5104837;28;20553;-73
2022/12/29 11:49:21;;;;;;;2.88;1.00;;;;;;;15.00;51.54;98608.59;5095509;29;20067;-71
2022/12/29 11:52:13;;;;;;;3.22;1.08;;;;;;;14.83;51.59;98591.03;5094814;29;20447;-74
2022/12/29 11:55:06;;;;;;;2.58;1.02;;;;;;;14.99;50.54;98582.88;5092208;29;20759;-74
2022/12/29 11:58:01;;;;;;;5.63;1.05;;;;;;;14.58;51.30;98601.09;5097412;29;20063;-74
2022/12/29 12:00:52;;;;;;;3.20;1.08;;;;;;;14.86;50.50;98601.34;5093924;29;20082;-70
2022/12/29 12:04:06;;;;;;;5.15;1.42;;;;;;;14.68;51.21;98596.34;5094112;29;20044;-75
2022/12/29 12:07:20;;;;;;;3.25;1.67;;;;;;;14.91;50.62;98598.16;5097047;29;20171;-74
2022/12/29 12:10:24;;;;;;;6.70;1.30;;;;;;;14.87;50.51;98599.53;5098516;29;20054;-73
2022/12/29 12:13:29;;;;;;;0.82;0.70;;;;;;;14.75;51.22;98596.47;5107976;28;20055;-76
2022/12/29 12:16:25;;;;;;;3.25;1.00;;;;;;;14.55;51.89;98612.97;5121913;28;20179;-76
2022/12/29 12:19:38;;;;;;;1.65;0.80;;;;;;;14.46;52.34;98603.31;5113498;28;20055;-71
2022/12/29 12:22:38;;;;;;;3.28;0.80;;;;;;;14.15;52.06;98594.56;5105149;28;20055;-73
2022/12/29 12:25:39;;;;;;;2.28;0.63;;;;;;;14.45;51.80;98609.66;5098750;29;20060;-71
2022/12/29 12:28:41;;;;;;;2.35;0.82;;;;;;;14.59;51.17;98585.91;5104212;29;20790;-73
2022/12/29 12:31:43;;;;;;;1.88;0.90;;;;;;;14.76;51.82;98606.94;5106846;29;20058;-73
2022/12/29 12:34:43;;;;;;;1.45;0.80;;;;;;;14.70;51.30;98598.81;5104843;29;20540;-73
2022/12/29 12:37:52;;;;;;;4.97;1.10;;;;;;;14.91;51.86;98600.81;5107992;29;20058;-72
2022/12/29 12:41:00;;;;;;;1.67;0.75;;;;;;;14.65;51.90;98599.38;5118923;28;20061;-76
2022/12/29 12:44:01;;;;;;;2.20;0.90;;;;;;;15.08;51.91;98593.50;5118640;29;20521;-74
2022/12/29 12:47:18;;;;;;;0.85;0.70;;;;;;;14.82;52.04;98584.06;5092857;29;20127;-76
2022/12/29 12:50:18;;;;;;;0.85;0.55;;;;;;;14.65;52.68;98580.69;5095262;29;20526;-72
2022/12/29 12:53:30;;;;;;;2.42;0.95;;;;;;;15.13;52.01;98585.75;5095112;29;20055;-73
2022/12/29 12:56:32;;;;;;;3.80;1.20;;;;;;;15.23;51.79;98580.97;5114172;29;20601;-71
2022/12/29 12:59:52;;;;;;;1.48;0.80;;;;;;;15.19;51.60;98569.00;5095479;29;20584;-75
2022/12/29 13:03:04;;;;;;;2.42;0.90;;;;;;;15.07;52.18;98578.50;5102245;29;20527;-76
2022/12/29 13:06:03;;;;;;;0.77;0.60;;;;;;;15.30;51.60;98581.06;5104512;29;20094;-73
2022/12/29 13:09:12;;;;;;;1.23;0.80;;;;;;;15.22;51.04;98574.78;5106524;29;20561;-74
2022/12/29 13:12:24;;;;;;;2.05;0.90;;;;;;;15.11;51.33;98575.25;5092949;29;20172;-73
2022/12/29 13:15:51;;;;;;;1.80;0.90;;;;;;;15.14;52.33;98566.06;5097406;29;20522;-73
2022/12/29 13:19:16;;;;;;;2.70;1.50;;;;;;;15.45;51.93;98577.38;5108820;28;20656;-75
2022/12/29 13:22:31;;;;;;;2.80;1.40;;;;;;;15.42;51.47;98576.91;5086084;29;20125;-71
2022/12/29 13:26:12;;;;;;;5.15;1.15;;;;;;;15.65;51.01;98550.91;5112981;28;20143;-72
2022/12/29 13:29:24;;;;;;;2.28;1.10;;;;;;;15.50;51.19;98561.63;5100878;29;20058;-70
2022/12/29 13:32:47;;;;;;;3.22;1.02;;;;;;;15.26;53.07;98560.09;5114884;29;20095;-71
2022/12/29 13:35:46;;;;;;;2.13;1.15;;;;;;;15.04;53.65;98556.47;5099381;29;20069;-71
2022/12/29 13:38:41;;;;;;;6.40;1.85;;;;;;;14.80;53.86;98554.03;5098369;29;20079;-71
2022/12/29 13:41:39;;;;;;;3.70;1.30;;;;;;;14.76;53.98;98547.41;5115589;29;20131;-71
2022/12/29 13:44:34;;;;;;;4.22;1.55;;;;;;;14.92;53.64;98544.56;5103077;29;20059;-70
2022/12/29 13:47:46;;;;;;;4.50;1.20;;;;;;;15.10;53.62;98567.41;5101170;29;20190;-71
2022/12/29 13:50:39;;;;;;;3.58;1.25;;;;;;;14.83;54.00;98556.34;5099605;29;20048;-71
2022/12/29 13:54:17;;;;;;;5.13;1.30;;;;;;;14.80;54.12;98562.03;5105350;29;20056;-71
2022/12/29 13:57:09;;;;;;;4.25;1.30;;;;;;;14.94;54.32;98558.59;5096282;29;20047;-71
2022/12/29 14:00:10;;;;;;;3.50;1.45;;;;;;;14.82;54.87;98553.88;5099456;29;20544;-69
2022/12/29 14:03:28;;;;;;;2.38;1.25;;;;;;;14.71;55.55;98563.97;5089056;29;20435;-69
2022/12/29 14:06:23;;;;;;;1.95;1.27;;;;;;;14.73;55.22;98555.78;5108475;29;20051;-71
2022/12/29 14:09:51;;;;;;;4.50;1.90;;;;;;;14.63;55.85;98560.53;5105244;29;20062;-69
2022/12/29 14:12:43;;;;;;;2.65;1.48;;;;;;;14.54;55.97;98560.63;5088454;29;20175;-70
2022/12/29 14:15:40;;;;;;;7.47;1.50;;;;;;;14.76;55.36;98550.91;5103959;29;20630;-70
2022/12/29 14:18:33;;;;;;;3.15;1.10;;;;;;;14.49;56.13;98565.63;5116567;29;20059;-71
2022/12/29 14:21:29;;;;;;;7.03;1.33;;;;;;;14.56;56.05;98574.59;5105183;29;20466;-71
2022/12/29 14:24:34;;;;;;;3.95;1.20;;;;;;;14.44;56.33;98577.84;5115830;29;20074;-71
2022/12/29 14:27:29;;;;;;;2.40;1.23;;;;;;;14.53;55.75;98582.13;5107320;29;20573;-71